地図

経路データ

SID SEASON NUMBER BASIN SUBBASIN NAME ISO_TIME NATURE LAT LON WMO_WIND WMO_PRES WMO_AGENCY TRACK_TYPE DIST2LAND LANDFALL IFLAG USA_AGENCY USA_ATCF_ID USA_LAT USA_LON USA_RECORD USA_STATUS USA_WIND USA_PRES USA_SSHS USA_R34_NE USA_R34_SE USA_R34_SW USA_R34_NW USA_R50_NE USA_R50_SE USA_R50_SW USA_R50_NW USA_R64_NE USA_R64_SE USA_R64_SW USA_R64_NW USA_POCI USA_ROCI USA_RMW USA_EYE TOKYO_LAT TOKYO_LON TOKYO_GRADE TOKYO_WIND TOKYO_PRES TOKYO_R50_DIR TOKYO_R50_LONG TOKYO_R50_SHORT TOKYO_R30_DIR TOKYO_R30_LONG TOKYO_R30_SHORT TOKYO_LAND CMA_LAT CMA_LON CMA_CAT CMA_WIND CMA_PRES HKO_LAT HKO_LON HKO_CAT HKO_WIND HKO_PRES NEWDELHI_LAT NEWDELHI_LON NEWDELHI_GRADE NEWDELHI_WIND NEWDELHI_PRES NEWDELHI_CI NEWDELHI_DP NEWDELHI_POCI REUNION_LAT REUNION_LON REUNION_TYPE REUNION_WIND REUNION_PRES REUNION_TNUM REUNION_CI REUNION_RMW REUNION_R34_NE REUNION_R34_SE REUNION_R34_SW REUNION_R34_NW REUNION_R50_NE REUNION_R50_SE REUNION_R50_SW REUNION_R50_NW REUNION_R64_NE REUNION_R64_SE REUNION_R64_SW REUNION_R64_NW BOM_LAT BOM_LON BOM_TYPE BOM_WIND BOM_PRES BOM_TNUM BOM_CI BOM_RMW BOM_R34_NE BOM_R34_SE BOM_R34_SW BOM_R34_NW BOM_R50_NE BOM_R50_SE BOM_R50_SW BOM_R50_NW BOM_R64_NE BOM_R64_SE BOM_R64_SW BOM_R64_NW BOM_ROCI BOM_POCI BOM_EYE BOM_POS_METHOD BOM_PRES_METHOD NADI_LAT NADI_LON NADI_CAT NADI_WIND NADI_PRES WELLINGTON_LAT WELLINGTON_LON WELLINGTON_WIND WELLINGTON_PRES DS824_LAT DS824_LON DS824_STAGE DS824_WIND DS824_PRES TD9636_LAT TD9636_LON TD9636_STAGE TD9636_WIND TD9636_PRES TD9635_LAT TD9635_LON TD9635_WIND TD9635_PRES TD9635_ROCI NEUMANN_LAT NEUMANN_LON NEUMANN_CLASS NEUMANN_WIND NEUMANN_PRES MLC_LAT MLC_LON MLC_CLASS MLC_WIND MLC_PRES USA_GUST BOM_GUST BOM_GUST_PER REUNION_GUST REUNION_GUST_PER USA_SEAHGT USA_SEARAD_NE USA_SEARAD_SE USA_SEARAD_SW USA_SEARAD_NW STORM_SPEED STORM_DIR
1990133N09259 1990 30 EP MM ALMA 1990-05-12 18:00:00 TS 9.30000 -101.100 25 1009 hurdat_epa main 829 816 O_____________ hurdat_epa EP011990 9.30000 -101.100 TD 25 1009 -1 17 298
1990133N09259 1990 30 EP MM ALMA 1990-05-12 21:00:00 TS 9.68292 -101.842 main 816 805 P_____________ EP011990 9.68292 -101.842 TD 25 1008 -1 16 297
1990133N09259 1990 30 EP MM ALMA 1990-05-13 00:00:00 TS 10.0000 -102.500 25 1008 hurdat_epa main 809 802 O_____________ hurdat_epa EP011990 10.0000 -102.500 TD 25 1008 -1 13 295
1990133N09259 1990 30 EP MM ALMA 1990-05-13 03:00:00 TS 10.2148 -103.010 main 810 805 P_____________ EP011990 10.2148 -103.010 TD 25 1008 -1 10 294
1990133N09259 1990 30 EP MM ALMA 1990-05-13 06:00:00 TS 10.4000 -103.400 25 1008 hurdat_epa main 810 797 O_____________ hurdat_epa EP011990 10.4000 -103.400 TD 25 1008 -1 8 302
1990133N09259 1990 30 EP MM ALMA 1990-05-13 09:00:00 TS 10.6499 -103.730 main 800 781 P_____________ EP011990 10.6499 -103.730 TD 27 1007 -1 8 310
1990133N09259 1990 30 EP MM ALMA 1990-05-13 12:00:00 TS 10.9000 -104.000 30 1007 hurdat_epa main 781 770 O_____________ hurdat_epa EP011990 10.9000 -104.000 TD 30 1007 -1 7 314
1990133N09259 1990 30 EP MM ALMA 1990-05-13 15:00:00 TS 11.1073 -104.220 main 770 760 P_____________ EP011990 11.1073 -104.220 TD 30 1006 -1 6 309
1990133N09259 1990 30 EP MM ALMA 1990-05-13 18:00:00 TS 11.3000 -104.500 30 1006 hurdat_epa main 765 760 O_____________ hurdat_epa EP011990 11.3000 -104.500 TD 30 1006 -1 8 300
1990133N09259 1990 30 EP MM ALMA 1990-05-13 21:00:00 TS 11.5149 -104.932 main 767 761 P_____________ EP011990 11.5149 -104.932 TD 32 1005 -1 11 292
1990133N09259 1990 30 EP MM ALMA 1990-05-14 00:00:00 TS 11.7000 -105.500 35 1005 hurdat_epa main 768 764 O_____________ hurdat_epa EP011990 11.7000 -105.500 TS 35 1005 0 12 284
1990133N09259 1990 30 EP MM ALMA 1990-05-14 03:00:00 TS 11.8224 -106.155 main 783 781 P_____________ EP011990 11.8224 -106.155 TS 35 1004 0 14 278
1990133N09259 1990 30 EP MM ALMA 1990-05-14 06:00:00 TS 11.9000 -106.900 35 1004 hurdat_epa main 803 803 O_____________ hurdat_epa EP011990 11.9000 -106.900 TS 35 1004 0 15 275
1990133N09259 1990 30 EP MM ALMA 1990-05-14 09:00:00 TS 11.9575 -107.693 main 836 836 P_____________ EP011990 11.9575 -107.693 TS 35 1003 0 16 274
1990133N09259 1990 30 EP MM ALMA 1990-05-14 12:00:00 TS 12.0000 -108.500 35 1003 hurdat_epa main 886 886 O_____________ hurdat_epa EP011990 12.0000 -108.500 TS 35 1003 0 16 274
1990133N09259 1990 30 EP MM ALMA 1990-05-14 15:00:00 TS 12.0574 -109.272 main 929 929 P_____________ EP011990 12.0574 -109.272 TS 40 1001 0 15 274
1990133N09259 1990 30 EP MM ALMA 1990-05-14 18:00:00 TS 12.1000 -110.000 45 1000 hurdat_epa main 970 970 O_____________ hurdat_epa EP011990 12.1000 -110.000 TS 45 1000 0 14 272
1990133N09259 1990 30 EP MM ALMA 1990-05-14 21:00:00 TS 12.1073 -110.680 main 1015 1015 P_____________ EP011990 12.1073 -110.680 TS 50 997 0 13 270
1990133N09259 1990 30 EP MM ALMA 1990-05-15 00:00:00 TS 12.1000 -111.300 55 994 hurdat_epa main 1056 1056 O_____________ hurdat_epa EP011990 12.1000 -111.300 TS 55 994 0 12 269
1990133N09259 1990 30 EP MM ALMA 1990-05-15 03:00:00 TS 12.0923 -111.858 main 1099 1099 P_____________ EP011990 12.0923 -111.858 TS 57 992 0 11 270
1990133N09259 1990 30 EP MM ALMA 1990-05-15 06:00:00 TS 12.1000 -112.400 60 990 hurdat_epa main 1137 1137 O_____________ hurdat_epa EP011990 12.1000 -112.400 TS 60 990 0 11 272
1990133N09259 1990 30 EP MM ALMA 1990-05-15 09:00:00 TS 12.1274 -112.993 main 1183 1183 P_____________ EP011990 12.1274 -112.993 TS 62 988 0 12 275
1990133N09259 1990 30 EP MM ALMA 1990-05-15 12:00:00 TS 12.2000 -113.600 65 987 hurdat_epa main 1221 1221 O_____________ hurdat_epa EP011990 12.2000 -113.600 HU 65 987 1 12 280
1990133N09259 1990 30 EP MM ALMA 1990-05-15 15:00:00 TS 12.3274 -114.200 main 1260 1259 P_____________ EP011990 12.3274 -114.200 HU 65 987 1 12 284
1990133N09259 1990 30 EP MM ALMA 1990-05-15 18:00:00 TS 12.5000 -114.800 65 987 hurdat_epa main 1269 1267 O_____________ hurdat_epa EP011990 12.5000 -114.800 HU 65 987 1 12 287
1990133N09259 1990 30 EP MM ALMA 1990-05-15 21:00:00 TS 12.6849 -115.408 main 1276 1275 P_____________ EP011990 12.6849 -115.408 HU 67 985 1 12 289
1990133N09259 1990 30 EP MM ALMA 1990-05-16 00:00:00 TS 12.9000 -116.000 70 983 hurdat_epa main 1285 1281 O_____________ hurdat_epa EP011990 12.9000 -116.000 HU 70 983 1 12 292
1990133N09259 1990 30 EP MM ALMA 1990-05-16 03:00:00 TS 13.1424 -116.565 main 1299 1289 P_____________ EP011990 13.1424 -116.565 HU 72 981 1 12 295
1990133N09259 1990 30 EP MM ALMA 1990-05-16 06:00:00 TS 13.4000 -117.100 75 979 hurdat_epa main 1300 1297 O_____________ hurdat_epa EP011990 13.4000 -117.100 HU 75 979 1 12 297
1990133N09259 1990 30 EP MM ALMA 1990-05-16 09:00:00 TS 13.6724 -117.622 main 1304 1304 P_____________ EP011990 13.6724 -117.622 HU 72 981 1 11 297
1990133N09259 1990 30 EP MM ALMA 1990-05-16 12:00:00 TS 13.9000 -118.100 70 983 hurdat_epa main 1319 1318 O_____________ hurdat_epa EP011990 13.9000 -118.100 HU 70 983 1 9 293
1990133N09259 1990 30 EP MM ALMA 1990-05-16 15:00:00 TS 14.0373 -118.500 main 1339 1337 P_____________ EP011990 14.0373 -118.500 HU 65 986 1 8 284
1990133N09259 1990 30 EP MM ALMA 1990-05-16 18:00:00 TS 14.1000 -118.900 60 990 hurdat_epa main 1359 1359 O_____________ hurdat_epa EP011990 14.1000 -118.900 TS 60 990 0 8 275
1990133N09259 1990 30 EP MM ALMA 1990-05-16 21:00:00 TS 14.1149 -119.370 main 1396 1396 P_____________ EP011990 14.1149 -119.370 TS 57 992 0 10 270
1990133N09259 1990 30 EP MM ALMA 1990-05-17 00:00:00 TS 14.1000 -119.900 55 994 hurdat_epa main 1433 1433 O_____________ hurdat_epa EP011990 14.1000 -119.900 TS 55 994 0 11 269
1990133N09259 1990 30 EP MM ALMA 1990-05-17 03:00:00 TS 14.0923 -120.470 main 1476 1476 P_____________ EP011990 14.0923 -120.470 TS 50 997 0 12 270
1990133N09259 1990 30 EP MM ALMA 1990-05-17 06:00:00 TS 14.1000 -121.100 45 1000 hurdat_epa main 1514 1514 O_____________ hurdat_epa EP011990 14.1000 -121.100 TS 45 1000 0 13 272
1990133N09259 1990 30 EP MM ALMA 1990-05-17 09:00:00 TS 14.1352 -121.822 main 1560 1560 P_____________ EP011990 14.1352 -121.822 TS 40 1001 0 14 274
1990133N09259 1990 30 EP MM ALMA 1990-05-17 12:00:00 TS 14.2000 -122.500 35 1003 hurdat_epa main 1601 1601 O_____________ hurdat_epa EP011990 14.2000 -122.500 TS 35 1003 0 11 280
1990133N09259 1990 30 EP MM ALMA 1990-05-17 15:00:00 TS 14.3220 -122.965 main 1628 1627 P_____________ EP011990 14.3220 -122.965 TS 32 1005 -1 9 283
1990133N09259 1990 30 EP MM ALMA 1990-05-17 18:00:00 TS 14.4000 -123.400 30 1007 hurdat_epa main 1650 1650 O_____________ hurdat_epa EP011990 14.4000 -123.400 TD 30 1007 -1 10 270
1990133N09259 1990 30 EP MM ALMA 1990-05-17 21:00:00 TS 14.3299 -123.970 main 1703 1703 P_____________ EP011990 14.3299 -123.970 TD 27 1008 -1 12 260
1990133N09259 1990 30 EP MM ALMA 1990-05-18 00:00:00 TS 14.2000 -124.600 25 1009 hurdat_epa main 1757 1757 O_____________ hurdat_epa EP011990 14.2000 -124.600 TD 25 1009 -1 13 259
1990133N09259 1990 30 EP MM ALMA 1990-05-18 03:00:00 TS 14.0848 -125.235 main 1811 1811 P_____________ EP011990 14.0848 -125.235 TD 25 1009 -1 13 261
1990133N09259 1990 30 EP MM ALMA 1990-05-18 06:00:00 TS 14.0000 -125.900 25 1009 hurdat_epa main 1874 1874 O_____________ hurdat_epa EP011990 14.0000 -125.900 TD 25 1009 -1 13 265
1990133N09259 1990 30 EP MM ALMA 1990-05-18 09:00:00 TS 13.9804 -126.592 main 1931 1931 P_____________ EP011990 13.9804 -126.592 TD 22 1009 -1 14 270
1990133N09259 1990 30 EP MM ALMA 1990-05-18 12:00:00 TS 14.0000 -127.300 20 1009 hurdat_epa main 1988 O_____________ hurdat_epa EP011990 14.0000 -127.300 TD 20 1009 -1 14 272

IBTrACS Databaseについて

本データベースは、米国NOAAが公開する1842年以降の世界の熱帯低気圧のベストトラックデータアーカイブInternational Best Track Archive for Climate Stewardship (IBTrACS)を、ウェブで閲覧しやすい形式に変換したものです。

最終更新日:2021-11-26